Data for 01/27/2009

Time Sea-Level Adjusted Pressure Absolute Pressure Temperature Relative Humidity Dew Point   
(mb) (inHg) (mb) (inHg) (C) (F) (%) (C) (F)
00:05 1021 30.15 850 25.1 -21 -5.9 70 -25.1 -13.2
00:10 1021 30.15 850 25.1 -20.9 -5.7 69 -25.3 -13.5
00:15 1021 30.15 850 25.1 -21.9 -7.4 71 -25.8 -14.4
00:20 1021 30.15 850 25.1 -22.2 -8 71 -26.1 -15.1
00:25 1021 30.15 850 25.1 -22.2 -8 71 -26.2 -15.2
00:30 1021 30.15 850 25.1 -22.3 -8.2 70 -26.3 -15.4
00:35 1021 30.15 850 25.1 -22.5 -8.6 72 -26.4 -15.4
00:40 1020 30.12 850 25.1 -22.3 -8.1 71 -26.2 -15.1
00:45 1020 30.12 850 25.1 -21.8 -7.3 71 -25.8 -14.4
00:50 1020 30.12 850 25.1 -21.4 -6.6 68 -25.8 -14.5
00:55 1020 30.12 850 25.1 -21.4 -6.4 68 -25.8 -14.4
01:00 1020 30.12 850 25.1 -21.5 -6.6 67 -26 -14.9
01:05 1020 30.12 850 25.1 -21.8 -7.2 68 -26.1 -15
01:10 1020 30.12 850 25.1 -21.8 -7.3 67 -26.3 -15.4
01:15 1020 30.12 850 25.1 -21.5 -6.8 68 -26 -14.8
01:20 1020 30.12 850 25.1 -21.3 -6.4 66 -26 -14.9
01:25 1020 30.12 850 25.1 -21.5 -6.8 67 -26.1 -14.9
01:30 1020 30.12 850 25.1 -21.2 -6.2 66 -25.9 -14.7
01:35 1020 30.12 850 25.1 -21 -5.9 66 -25.9 -14.6
01:40 1020 30.12 850 25.1 -20.5 -4.9 63 -25.9 -14.6
01:45 1020 30.12 850 25.1 -20.1 -4.1 66 -24.8 -12.7
01:50 1021 30.15 850 25.1 -19.7 -3.5 62 -25.2 -13.4
01:55 1021 30.15 850 25.1 -20.6 -5.1 66 -25.5 -13.9
02:00 1021 30.15 850 25.1 -21.1 -6 66 -25.9 -14.6
02:05 1021 30.15 850 25.1 -21.3 -6.4 67 -26 -14.7
02:10 1021 30.15 850 25.1 -22.1 -7.8 69 -26.4 -15.5
02:15 1021 30.15 850 25.1 -22.5 -8.4 72 -26.3 -15.3
02:20 1021 30.15 850 25.1 -22.8 -9 76 -25.9 -14.7
02:25 1021 30.15 850 25.1 -22.7 -8.9 76 -25.8 -14.5
02:30 1021 30.15 850 25.1 -22.8 -9 75 -26.1 -15
02:35 1021 30.15 850 25.1 -22.7 -8.9 74 -26.2 -15.1
02:40 1020 30.12 850 25.1 -22.7 -8.9 77 -25.7 -14.2
02:45 1020 30.12 850 25.1 -22.3 -8.1 76 -25.5 -13.9
02:50 1020 30.12 849 25.07 -22.3 -8.2 77 -25.3 -13.5
02:55 1020 30.12 849 25.07 -22.2 -8 76 -25.4 -13.7
03:00 1020 30.12 849 25.07 -22.5 -8.4 73 -26 -14.8
03:05 1020 30.12 849 25.07 -23.2 -9.7 74 -26.5 -15.8
03:10 1020 30.12 849 25.07 -23.1 -9.5 74 -26.5 -15.7
03:15 1020 30.12 849 25.07 -22.7 -8.9 73 -26.4 -15.5
03:20 1020 30.12 849 25.07 -22.3 -8.2 71 -26.2 -15.1
03:25 1020 30.12 849 25.07 -21.7 -7 69 -25.9 -14.6
03:30 1020 30.12 849 25.07 -21.3 -6.4 68 -25.8 -14.5
03:35 1020 30.12 849 25.07 -21.3 -6.4 67 -25.9 -14.5
03:40 1020 30.12 850 25.1 -21.4 -6.5 67 -26 -14.8
03:45 1020 30.12 849 25.07 -21.7 -7 69 -26 -14.7
03:50 1020 30.12 849 25.07 -21.9 -7.5 71 -25.9 -14.7
03:55 1020 30.12 849 25.07 -22.1 -7.7 71 -26 -14.9
04:00 1020 30.12 849 25.07 -21.9 -7.4 70 -26 -14.8
04:05 1020 30.12 849 25.07 -21.9 -7.4 70 -26 -14.8
04:10 1020 30.12 849 25.07 -21.9 -7.4 72 -25.6 -14.1
04:15 1020 30.12 849 25.07 -21.7 -7 73 -25.3 -13.6
04:20 1020 30.12 849 25.07 -21.2 -6.2 69 -25.5 -13.8
04:25 1020 30.12 849 25.07 -21.2 -6.1 69 -25.5 -13.9
04:30 1020 30.12 849 25.07 -21.3 -6.4 70 -25.5 -13.8
04:35 1020 30.12 849 25.07 -21.5 -6.6 71 -25.4 -13.6
04:40 1020 30.12 849 25.07 -21.7 -7.1 74 -25.2 -13.4
04:45 1020 30.12 849 25.07 -22.2 -7.9 74 -25.6 -14.1
04:50 1020 30.12 849 25.07 -21.9 -7.4 71 -25.8 -14.4
04:55 1020 30.12 849 25.07 -21.6 -6.8 71 -25.6 -14
05:00 1020 30.12 849 25.07 -21.3 -6.4 70 -25.4 -13.7
05:05 1020 30.12 849 25.07 -21.4 -6.5 73 -25 -13
05:10 1020 30.12 849 25.07 -21.1 -6 70 -25.2 -13.4
05:15 1020 30.12 849 25.07 -21 -5.7 70 -25.1 -13.1
05:20 1020 30.12 849 25.07 -20.9 -5.6 70 -25.1 -13.1
05:25 1020 30.12 849 25.07 -21.2 -6.2 69 -25.4 -13.8
05:30 1020 30.12 849 25.07 -21.6 -6.9 70 -25.8 -14.4
05:35 1020 30.12 849 25.07 -21.8 -7.3 70 -25.9 -14.5
05:40 1020 30.12 849 25.07 -22.2 -8 74 -25.6 -14.1
05:45 1020 30.12 849 25.07 -22.2 -8 77 -25.3 -13.5
05:50 1020 30.12 849 25.07 -22.2 -8 75 -25.6 -14
05:55 1019 30.09 849 25.07 -21.8 -7.2 73 -25.5 -13.8
06:00 1019 30.09 849 25.07 -21.8 -7.3 71 -25.8 -14.5
06:05 1019 30.09 849 25.07 -22.3 -8.1 74 -25.8 -14.4
06:10 1019 30.09 849 25.07 -21.9 -7.3 73 -25.6 -14
06:15 1019 30.09 849 25.07 -21.5 -6.7 71 -25.5 -13.8
06:20 1019 30.09 849 25.07 -21.6 -7 71 -25.6 -14.1
06:25 1020 30.12 849 25.07 -21.9 -7.4 71 -25.9 -14.7
06:30 1020 30.12 849 25.07 -22.3 -8.2 74 -25.8 -14.4
06:35 1020 30.12 849 25.07 -22.2 -7.9 74 -25.6 -14
06:40 1020 30.12 849 25.07 -21.8 -7.3 72 -25.6 -14
06:45 1020 30.12 849 25.07 -21.9 -7.5 74 -25.4 -13.8
06:50 1020 30.12 849 25.07 -21.6 -6.8 71 -25.5 -13.9
06:55 1020 30.12 849 25.07 -21.7 -7 73 -25.3 -13.5
07:00 1020 30.12 849 25.07 -21.8 -7.2 72 -25.6 -14.1
07:05 1020 30.12 849 25.07 -21.7 -7.1 72 -25.5 -14
07:10 1020 30.12 849 25.07 -21.5 -6.7 71 -25.4 -13.8
07:15 1020 30.12 849 25.07 -21.1 -6 70 -25.2 -13.4
07:20 1020 30.12 849 25.07 -20.8 -5.5 69 -25.2 -13.3
07:25 1019 30.09 849 25.07 -21 -5.9 69 -25.4 -13.7
07:30 1019 30.09 848 25.04 -21.5 -6.8 70 -25.7 -14.2
07:35 1019 30.09 848 25.04 -21.6 -6.9 70 -25.8 -14.4
07:40 1019 30.09 848 25.04 -21.6 -6.8 70 -25.6 -14.1
07:45 1019 30.09 849 25.07 -21.9 -7.4 71 -25.9 -14.6
07:50 1019 30.09 849 25.07 -22 -7.5 71 -25.8 -14.5
07:55 1019 30.09 848 25.04 -22.1 -7.8 73 -25.8 -14.4
08:00 1019 30.09 848 25.04 -21.9 -7.4 73 -25.5 -13.9
08:05 1019 30.09 849 25.07 -21.5 -6.7 72 -25.3 -13.6
08:10 1019 30.09 849 25.07 -21.3 -6.3 72 -25.1 -13.2
08:15 1019 30.09 849 25.07 -21.1 -5.9 71 -25 -13
08:20 1019 30.09 849 25.07 -20.6 -5.2 69 -25 -12.9
08:25 1019 30.09 849 25.07 -20 -4.1 67 -24.7 -12.4
08:30 1019 30.09 849 25.07 -19.7 -3.4 66 -24.4 -12
08:35 1019 30.09 848 25.04 -19.6 -3.3 68 -24.2 -11.5
08:40 1019 30.09 849 25.07 -19.3 -2.7 66 -24.2 -11.6
08:45 1020 30.12 849 25.07 -19 -2.1 65 -24 -11.2
08:50 1020 30.12 849 25.07 -18.5 -1.4 63 -24 -11.1
08:55 1019 30.09 849 25.07 -18.1 -0.6 68 -22.6 -8.7
09:00 1019 30.09 849 25.07 -17.8 -0 67 -22.5 -8.4
09:05 1019 30.09 849 25.07 -17.9 -0.1 66 -22.8 -9.1
09:10 1019 30.09 849 25.07 -17.7 0.1 65 -22.7 -8.9
09:15 1020 30.12 849 25.07 -17.3 0.8 62 -22.9 -9.3
09:20 1019 30.09 849 25.07 -17.1 1.2 60 -23 -9.5
09:25 1019 30.09 849 25.07 -17.3 0.8 62 -22.9 -9.2
09:30 1019 30.09 849 25.07 -17.3 0.9 64 -22.6 -8.6
09:35 1019 30.09 849 25.07 -17.2 1.1 62 -22.8 -9.1
09:40 1019 30.09 849 25.07 -17.2 1.1 60 -23.3 -9.9
09:45 1019 30.09 848 25.04 -17 1.3 62 -22.8 -9
09:50 1019 30.09 849 25.07 -16.4 2.5 60 -22.5 -8.5
09:55 1019 30.09 848 25.04 -15.9 3.5 58 -22.4 -8.3
10:00 1019 30.09 848 25.04 -15.3 4.4 55 -22.4 -8.3
10:05 1019 30.09 848 25.04 -15.1 4.8 55 -22.2 -8
10:10 1019 30.09 848 25.04 -15.2 4.7 58 -21.6 -6.9
10:15 1019 30.09 848 25.04 -15 5.1 57 -21.7 -7
10:20 1019 30.09 848 25.04 -14.8 5.4 56 -21.7 -7
10:25 1019 30.09 848 25.04 -14.6 5.6 54 -22 -7.7
10:30 1019 30.09 848 25.04 -14.5 5.9 55 -21.6 -6.9
10:35 1019 30.09 848 25.04 -14.3 6.2 57 -21.1 -6.1
10:40 1018 30.06 848 25.04 -14.7 5.6 58 -21.1 -6
10:45 1019 30.09 848 25.04 -15 5.1 58 -21.5 -6.6
10:50 1019 30.09 848 25.04 -14.8 5.4 55 -21.8 -7.3
10:55 1019 30.09 848 25.04 -14.5 5.8 55 -21.8 -7.2
11:00 1019 30.09 848 25.04 -13.9 7 52 -21.8 -7.3
11:05 1019 30.09 848 25.04 -13.4 7.9 53 -21 -5.7
11:10 1019 30.09 848 25.04 -12.6 9.3 49 -21.3 -6.4
11:15 1018 30.06 848 25.04 -12.4 9.7 50 -20.8 -5.4
11:20 1018 30.06 848 25.04 -12.4 9.6 49 -21.2 -6.1
11:25 1018 30.06 848 25.04 -13.1 8.5 51 -21.2 -6.1
11:30 1018 30.06 848 25.04 -13.1 8.4 50 -21.6 -6.8
11:35 1018 30.06 848 25.04 -13.1 8.4 52 -21 -5.8
11:40 1018 30.06 847 25.01 -12.9 8.7 52 -20.9 -5.5
11:45 1018 30.06 847 25.01 -12.6 9.2 50 -21 -5.8
11:50 1018 30.06 847 25.01 -12.4 9.7 52 -20.5 -4.8
11:55 1018 30.06 847 25.01 -12.4 9.8 51 -20.5 -4.9
12:00 1018 30.06 847 25.01 -12.5 9.5 51 -20.7 -5.3
12:05 1018 30.06 847 25.01 -12.1 10.2 54 -19.6 -3.4
12:10 1018 30.06 847 25.01 -12.4 9.7 58 -19.1 -2.4
12:15 1018 30.06 847 25.01 -12.8 9 58 -19.5 -3
12:20 1018 30.06 847 25.01 -13 8.7 59 -19.4 -2.9
12:25 1018 30.06 847 25.01 -12.9 8.7 60 -19.1 -2.4
12:30 1017 30.03 847 25.01 -12.5 9.5 56 -19.6 -3.4
12:35 1017 30.03 847 25.01 -12 10.5 54 -19.5 -3.1
12:40 1017 30.03 846 24.98 -12.2 10.1 56 -19.3 -2.8
12:45 1017 30.03 846 24.98 -11.9 10.5 54 -19.5 -3
12:50 1017 30.03 846 24.98 -12.1 10.3 54 -19.6 -3.2
12:55 1017 30.03 846 24.98 -12 10.4 56 -19.1 -2.4
13:00 1017 30.03 846 24.98 -11.8 10.8 57 -18.7 -1.7
13:05 1017 30.03 846 24.98 -11.4 11.5 54 -18.9 -2.1
13:10 1017 30.03 846 24.98 -11 12.1 52 -19.2 -2.5
13:15 1017 30.03 846 24.98 -11.2 11.8 49 -19.9 -3.9
13:20 1017 30.03 846 24.98 -11.4 11.4 51 -19.7 -3.4
13:25 1017 30.03 846 24.98 -11 12.3 47 -20.3 -4.5
13:30 1017 30.03 846 24.98 -11 12.1 49 -19.7 -3.5
13:35 1017 30.03 846 24.98 -10.9 12.3 51 -19.2 -2.6
13:40 1017 30.03 846 24.98 -10.7 12.7 48 -19.6 -3.4
13:45 1017 30.03 846 24.98 -10.7 12.7 50 -19.3 -2.7
13:50 1017 30.03 846 24.98 -11.5 11.3 52 -19.5 -3.1
13:55 1017 30.03 846 24.98 -12.1 10.3 53 -19.8 -3.7
14:00 1017 30.03 846 24.98 -12.1 10.3 50 -20.6 -5
14:05 1017 30.03 846 24.98 -12.2 10.1 54 -19.7 -3.4
14:10 1016 30 846 24.98 -11.9 10.7 53 -19.6 -3.4
14:15 1017 30.03 846 24.98 -11.4 11.6 49 -20 -4.1
14:20 1016 30 846 24.98 -11.1 12 49 -19.9 -3.9
14:25 1016 30 846 24.98 -11 12.2 51 -19.2 -2.6
14:30 1016 30 846 24.98 -10.4 13.3 50 -19 -2.1
14:35 1017 30.03 846 24.98 -9.9 14.2 49 -18.8 -1.8
14:40 1017 30.03 846 24.98 -9.9 14.2 46 -19.6 -3.2
14:45 1017 30.03 846 24.98 -10 13.9 48 -19 -2.2
14:50 1016 30 846 24.98 -9.7 14.5 49 -18.5 -1.3
14:55 1016 30 846 24.98 -9.6 14.8 49 -18.4 -1.1
15:00 1017 30.03 846 24.98 -9.9 14.2 48 -18.9 -2
15:05 1016 30 846 24.98 -9.9 14.2 50 -18.6 -1.4
15:10 1016 30 846 24.98 -10.3 13.5 48 -19.2 -2.6
15:15 1016 30 845 24.95 -10.5 13.1 49 -19.3 -2.8
15:20 1016 30 845 24.95 -10.4 13.3 48 -19.4 -2.9
15:25 1016 30 845 24.95 -10.1 13.8 49 -19 -2.2
15:30 1016 30 845 24.95 -9.7 14.5 50 -18.3 -0.9
15:35 1016 30 845 24.95 -9.2 15.4 46 -18.8 -1.9
15:40 1016 30 845 24.95 -9.1 15.6 46 -18.7 -1.6
15:45 1016 30 845 24.95 -9.3 15.2 48 -18.3 -1
15:50 1016 30 845 24.95 -9.2 15.5 49 -18.2 -0.7
15:55 1016 30 845 24.95 -8.6 16.6 45 -18.5 -1.4
16:00 1016 30 845 24.95 -7.9 17.8 44 -18.1 -0.7
16:05 1016 30 845 24.95 -7.2 19.1 44 -17.4 0.6
16:10 1016 30 845 24.95 -7.1 19.2 44 -17.4 0.7
16:15 1016 30 845 24.95 -7.5 18.4 44 -17.7 0.2
16:20 1016 30 845 24.95 -7.6 18.4 44 -17.9 -0.2
16:25 1016 30 845 24.95 -8.2 17.2 46 -17.9 -0.1
16:30 1016 30 845 24.95 -8.6 16.6 51 -16.9 1.6
16:35 1016 30 845 24.95 -8.6 16.4 50 -17.3 0.8
16:40 1016 30 845 24.95 -8.9 16 55 -16.5 2.3
16:45 1016 30 845 24.95 -8.8 16.1 53 -16.7 2
16:50 1016 30 845 24.95 -8.8 16.1 55 -16.3 2.7
16:55 1016 30 845 24.95 -8.5 16.8 55 -16 3.2
17:00 1016 30 845 24.95 -8.4 17 54 -16.1 3
17:05 1015 29.97 845 24.95 -8.2 17.2 53 -16.1 3
17:10 1015 29.97 845 24.95 -8 17.5 56 -15.4 4.2
17:15 1015 29.97 844 24.92 -8 17.5 56 -15.4 4.4
17:20 1015 29.97 844 24.92 -8.2 17.3 56 -15.6 3.9
17:25 1015 29.97 844 24.92 -8.5 16.7 56 -15.8 3.6
17:30 1015 29.97 844 24.92 -8.8 16.1 56 -16.2 2.9
17:35 1015 29.97 844 24.92 -9 15.8 58 -15.8 3.5
17:40 1015 29.97 844 24.92 -9 15.9 57 -16 3.3
17:45 1014 29.94 844 24.92 -8.8 16.2 56 -16.1 3
17:50 1014 29.94 843 24.89 -8.6 16.6 56 -15.7 3.7
17:55 1014 29.94 844 24.92 -8.4 17 57 -15.5 4
18:00 1014 29.94 843 24.89 -8.3 17 57 -15.4 4.2
18:05 1014 29.94 843 24.89 -8.4 17 57 -15.4 4.3
18:10 1014 29.94 843 24.89 -8.2 17.3 56 -15.4 4.3
18:15 1014 29.94 843 24.89 -7.8 17.9 55 -15.4 4.2
18:20 1014 29.94 843 24.89 -7.7 18.1 55 -15.3 4.4
18:25 1014 29.94 843 24.89 -7.6 18.3 56 -14.9 5.2
18:30 1014 29.94 843 24.89 -7.6 18.4 56 -14.9 5.2
18:35 1014 29.94 843 24.89 -7.4 18.7 55 -15 5
18:40 1014 29.94 843 24.89 -7.1 19.3 54 -14.9 5.1
18:45 1014 29.94 843 24.89 -6.9 19.5 54 -14.8 5.3
18:50 1014 29.94 843 24.89 -7.1 19.3 57 -14.2 6.5
18:55 1014 29.94 843 24.89 -7.4 18.8 58 -14.3 6.3
19:00 1014 29.94 843 24.89 -7.2 19 59 -13.9 6.9
19:05 1014 29.94 843 24.89 -7.4 18.8 60 -13.9 7
19:10 1014 29.94 843 24.89 -7.5 18.5 60 -14 6.8
19:15 1014 29.94 844 24.92 -7.5 18.4 61 -13.8 7.2
19:20 1015 29.97 844 24.92 -7.5 18.6 61 -13.7 7.4
19:25 1015 29.97 844 24.92 -7.4 18.7 62 -13.5 7.7
19:30 1014 29.94 844 24.92 -7 19.3 62 -13.2 8.2
19:35 1014 29.94 844 24.92 -7.1 19.3 62 -13.2 8.3
19:40 1014 29.94 844 24.92 -7.2 19 62 -13.3 8
19:45 1014 29.94 844 24.92 -7.3 18.9 63 -13.2 8.2
19:50 1014 29.94 843 24.89 -7.3 19 62 -13.3 8
19:55 1014 29.94 844 24.92 -7.4 18.7 63 -13.2 8.2
20:00 1014 29.94 844 24.92 -7.4 18.8 63 -13.3 8
20:05 1014 29.94 844 24.92 -7.2 19.1 63 -13.1 8.4
20:10 1015 29.97 844 24.92 -7.4 18.7 64 -13 8.6
20:15 1014 29.94 844 24.92 -7.9 17.9 62 -13.8 7.1
20:20 1014 29.94 844 24.92 -7.9 17.9 63 -13.8 7.2
20:25 1014 29.94 844 24.92 -7.9 17.8 65 -13.3 8
20:30 1015 29.97 844 24.92 -7.8 17.9 61 -14 6.7
20:35 1015 29.97 844 24.92 -7.8 18 63 -13.7 7.4
20:40 1015 29.97 844 24.92 -7.7 18.2 61 -13.9 6.9
20:45 1014 29.94 844 24.92 -7 19.4 59 -13.6 7.5
20:50 1014 29.94 844 24.92 -6.6 20.1 59 -13.4 8
20:55 1014 29.94 844 24.92 -6.4 20.4 60 -13.1 8.5
21:00 1014 29.94 843 24.89 -6.1 20.9 59 -13 8.6
21:05 1014 29.94 843 24.89 -5.7 21.7 58 -12.8 9
21:10 1014 29.94 843 24.89 -5.5 22.1 57 -12.7 9.2
21:15 1014 29.94 843 24.89 -5.4 22.3 58 -12.4 9.7
21:20 1014 29.94 843 24.89 -5.4 22.4 59 -12.2 10
21:25 1014 29.94 843 24.89 -5.3 22.5 60 -12 10.4
21:30 1014 29.94 843 24.89 -5.2 22.7 59 -11.9 10.6
21:35 1014 29.94 843 24.89 -4.9 23.2 59 -11.8 10.7
21:40 1014 29.94 843 24.89 -4.5 24 57 -11.7 10.9
21:45 1014 29.94 843 24.89 -4.4 24.2 58 -11.4 11.5
21:50 1014 29.94 843 24.89 -4.4 24 58 -11.5 11.3
21:55 1014 29.94 843 24.89 -4.6 23.8 59 -11.4 11.5
22:00 1014 29.94 843 24.89 -4.6 23.8 58 -11.6 11.2
22:05 1014 29.94 843 24.89 -4.6 23.8 59 -11.4 11.4
22:10 1014 29.94 843 24.89 -4.5 23.9 60 -11.2 11.8
22:15 1014 29.94 843 24.89 -4.5 24 59 -11.2 11.8
22:20 1014 29.94 843 24.89 -4.4 24 61 -10.9 12.4
22:25 1014 29.94 843 24.89 -4.4 24.1 62 -10.7 12.8
22:30 1014 29.94 843 24.89 -4.3 24.3 61 -10.7 12.8
22:35 1014 29.94 843 24.89 -4.1 24.6 60 -10.8 12.6
22:40 1014 29.94 843 24.89 -4 24.9 59 -10.8 12.6
22:45 1014 29.94 843 24.89 -3.8 25.2 57 -11 12.2
22:50 1014 29.94 843 24.89 -3.5 25.7 57 -10.9 12.5
22:55 1014 29.94 843 24.89 -3.1 26.4 55 -10.8 12.5
23:00 1014 29.94 843 24.89 -3.1 26.4 55 -10.9 12.4
23:05 1014 29.94 843 24.89 -3.4 25.9 57 -10.8 12.5
23:10 1014 29.94 843 24.89 -3.3 26.1 55 -11.2 11.9
23:15 1014 29.94 843 24.89 -2.6 27.3 53 -11 12.2
23:20 1014 29.94 843 24.89 -2.6 27.4 53 -10.9 12.4
23:25 1014 29.94 843 24.89 -2.7 27.2 53 -10.9 12.4
23:30 1014 29.94 843 24.89 -2.7 27.1 54 -10.7 12.8
23:35 1014 29.94 843 24.89 -2.9 26.7 55 -10.7 12.8
23:40 1014 29.94 843 24.89 -3 26.5 56 -10.7 12.7
23:45 1014 29.94 843 24.89 -3.1 26.4 57 -10.5 13.1
23:50 1014 29.94 843 24.89 -3.2 26.3 58 -10.4 13.2
23:55 1014 29.94 843 24.89 -3.2 26.2 58 -10.4 13.3
24:00 1014 29.94 843 24.89 -3.3 26.1 57 -10.6 13